createdAt,value
2022-09-11T00:00:20.759Z,13.36
2022-09-11T00:01:23.796Z,13.37
2022-09-11T00:02:26.768Z,13.36
2022-09-11T00:03:30.866Z,13.35
2022-09-11T00:04:33.999Z,13.35
2022-09-11T00:05:41.075Z,13.35
2022-09-11T00:06:44.316Z,13.34
2022-09-11T00:07:47.539Z,13.33
2022-09-11T00:08:57.607Z,13.34
2022-09-11T00:10:00.794Z,13.32
2022-09-11T00:11:07.853Z,13.32
2022-09-11T00:12:11.917Z,13.33
2022-09-11T00:13:21.094Z,13.32
2022-09-11T00:14:26.037Z,13.31
2022-09-11T00:15:29.041Z,13.32
2022-09-11T00:16:35.780Z,13.31
2022-09-11T00:17:38.747Z,13.30
2022-09-11T00:18:41.679Z,13.29
2022-09-11T00:19:44.734Z,13.28
2022-09-11T00:20:53.311Z,13.28
2022-09-11T00:21:56.667Z,13.28
2022-09-11T00:23:03.391Z,13.27
2022-09-11T00:24:08.753Z,13.26
2022-09-11T00:25:11.718Z,13.25
2022-09-11T00:26:20.596Z,13.24
2022-09-11T00:27:23.737Z,13.23
2022-09-11T00:28:26.873Z,13.22
2022-09-11T00:29:30.475Z,13.21
2022-09-11T00:30:33.999Z,13.21
2022-09-11T00:31:37.366Z,13.21
2022-09-11T00:32:40.707Z,13.20
2022-09-11T00:33:44.150Z,13.20
2022-09-11T00:34:47.205Z,13.20
2022-09-11T00:35:59.418Z,13.19
2022-09-11T00:37:02.980Z,13.19
2022-09-11T00:38:08.241Z,13.18
2022-09-11T00:39:11.906Z,13.18
2022-09-11T00:40:16.831Z,13.18
2022-09-11T00:41:29.344Z,13.18
2022-09-11T00:42:32.307Z,13.18
2022-09-11T00:43:54.711Z,13.17
2022-09-11T00:45:00.872Z,13.18
2022-09-11T00:46:05.344Z,13.18
2022-09-11T00:47:09.327Z,13.18
2022-09-11T00:48:15.925Z,13.18
2022-09-11T00:49:32.030Z,13.18
2022-09-11T00:50:36.022Z,13.18
2022-09-11T00:51:40.566Z,13.18
2022-09-11T00:52:52.930Z,13.18
2022-09-11T00:53:58.134Z,13.18
2022-09-11T00:55:10.486Z,13.18
2022-09-11T00:56:14.553Z,13.18
2022-09-11T00:57:20.646Z,13.18
2022-09-11T00:58:27.029Z,13.18
2022-09-11T00:59:32.899Z,13.18
2022-09-11T01:00:39.020Z,13.18
2022-09-11T01:01:42.947Z,13.17
2022-09-11T01:02:48.637Z,13.17
2022-09-11T01:03:51.678Z,13.18
2022-09-11T01:04:56.201Z,13.17
2022-09-11T01:06:00.237Z,13.16
2022-09-11T01:07:04.020Z,13.16
2022-09-11T01:08:07.894Z,13.15
2022-09-11T01:09:10.840Z,13.15
2022-09-11T01:10:14.770Z,13.14
2022-09-11T01:11:33.147Z,13.13
2022-09-11T01:12:56.571Z,13.13
2022-09-11T01:14:11.799Z,13.11
2022-09-11T01:15:21.041Z,13.08
2022-09-11T01:16:40.117Z,13.05
2022-09-11T01:17:55.812Z,13.05
2022-09-11T01:19:20.381Z,13.03
2022-09-11T01:20:29.489Z,13.01
2022-09-11T01:21:53.914Z,12.98
2022-09-11T01:23:01.801Z,12.96
2022-09-11T01:24:25.910Z,12.93
2022-09-11T01:26:01.166Z,12.91
2022-09-11T01:27:30.480Z,12.90
2022-09-11T01:28:39.923Z,12.87
2022-09-11T01:29:46.509Z,12.83
2022-09-11T01:30:56.214Z,12.82
2022-09-11T01:32:11.733Z,12.81
2022-09-11T01:34:59.730Z,12.90
2022-09-11T01:36:09.613Z,12.78
2022-09-11T01:37:19.049Z,12.77
2022-09-11T01:38:25.768Z,12.75
2022-09-11T01:39:32.282Z,12.75
2022-09-11T01:40:41.654Z,12.75
2022-09-11T01:41:48.878Z,12.75
2022-09-11T01:42:55.401Z,12.76
2022-09-11T01:44:06.346Z,12.76
2022-09-11T01:45:12.557Z,12.76
2022-09-11T01:46:21.383Z,12.77
2022-09-11T01:47:26.841Z,12.76
2022-09-11T01:48:33.475Z,12.75
2022-09-11T01:49:39.978Z,12.76
2022-09-11T01:50:46.955Z,12.76
2022-09-11T01:51:55.072Z,12.75
2022-09-11T01:53:01.737Z,12.75
2022-09-11T01:54:08.418Z,12.76
2022-09-11T01:55:18.460Z,12.76
2022-09-11T01:56:23.647Z,12.75
2022-09-11T01:57:42.269Z,12.75
2022-09-11T01:58:47.318Z,12.73
2022-09-11T01:59:54.534Z,12.70
2022-09-11T02:01:01.394Z,12.68
2022-09-11T02:02:09.018Z,12.66
2022-09-11T02:03:15.730Z,12.65
2022-09-11T02:04:22.417Z,12.65
2022-09-11T02:05:41.458Z,12.65
2022-09-11T02:06:48.247Z,12.66
2022-09-11T02:07:59.287Z,12.63
2022-09-11T02:09:05.786Z,12.63
2022-09-11T02:10:13.917Z,12.61
2022-09-11T02:11:18.258Z,12.60
2022-09-11T02:12:24.168Z,12.60
2022-09-11T02:13:53.082Z,12.59
2022-09-11T02:14:56.239Z,12.60
2022-09-11T02:16:08.743Z,12.59
2022-09-11T02:17:31.019Z,12.57
2022-09-11T02:18:47.118Z,12.57
2022-09-11T02:19:52.950Z,12.56
2022-09-11T02:20:57.697Z,12.54
2022-09-11T02:22:00.707Z,12.54
2022-09-11T02:23:06.439Z,12.54
2022-09-11T02:24:10.194Z,12.53
2022-09-11T02:25:13.178Z,12.54
2022-09-11T02:26:19.532Z,12.55
2022-09-11T02:27:27.185Z,12.55
2022-09-11T02:28:30.742Z,12.56
2022-09-11T02:29:34.734Z,12.58
2022-09-11T02:30:39.806Z,12.58
2022-09-11T02:31:43.549Z,12.60
2022-09-11T02:32:46.860Z,12.60
2022-09-11T02:33:50.894Z,12.62
2022-09-11T02:34:55.444Z,12.63
2022-09-11T02:36:02.044Z,12.64
2022-09-11T02:37:20.677Z,12.64
2022-09-11T02:38:33.496Z,12.65
2022-09-11T02:40:06.233Z,12.65
2022-09-11T02:41:16.992Z,12.65
2022-09-11T02:42:32.402Z,12.65
2022-09-11T02:43:51.131Z,12.64
2022-09-11T02:45:18.957Z,12.63
2022-09-11T02:46:43.754Z,12.63
2022-09-11T02:48:06.856Z,12.61
2022-09-11T02:49:18.934Z,12.60
2022-09-11T02:50:35.664Z,12.60
2022-09-11T02:51:51.410Z,12.59
2022-09-11T02:53:14.486Z,12.57
2022-09-11T02:54:44.623Z,12.54
2022-09-11T02:56:03.674Z,12.56
2022-09-11T02:57:26.252Z,12.57
2022-09-11T02:58:39.106Z,12.57
2022-09-11T02:59:55.787Z,12.58
2022-09-11T03:01:01.235Z,12.58
2022-09-11T03:02:08.494Z,12.59
2022-09-11T03:03:12.899Z,12.60
2022-09-11T03:04:18.134Z,12.61
2022-09-11T03:05:22.682Z,12.62
2022-09-11T03:06:27.505Z,12.64
2022-09-11T03:07:30.698Z,12.65
2022-09-11T03:08:34.124Z,12.67
2022-09-11T03:09:37.151Z,12.68
2022-09-11T03:10:42.631Z,12.69
2022-09-11T03:11:45.660Z,12.70
2022-09-11T03:12:48.576Z,12.70
2022-09-11T03:13:52.017Z,12.71
2022-09-11T03:14:56.576Z,12.71
2022-09-11T03:16:00.893Z,12.72
2022-09-11T03:17:04.330Z,12.73
2022-09-11T03:18:07.493Z,12.73
2022-09-11T03:19:11.744Z,12.72
2022-09-11T03:20:15.643Z,12.73
2022-09-11T03:21:18.704Z,12.74
2022-09-11T03:22:21.994Z,12.75
2022-09-11T03:23:25.041Z,12.75
2022-09-11T03:24:29.183Z,12.76
2022-09-11T03:25:32.264Z,12.77
2022-09-11T03:26:36.614Z,12.78
2022-09-11T03:27:39.751Z,12.78
2022-09-11T03:28:45.036Z,12.80
2022-09-11T03:29:49.895Z,12.80
2022-09-11T03:30:53.048Z,12.81
2022-09-11T03:31:56.823Z,12.82
2022-09-11T03:33:03.704Z,12.83
2022-09-11T03:34:06.962Z,12.85
2022-09-11T03:35:10.813Z,12.86
2022-09-11T03:36:15.384Z,12.86
2022-09-11T03:37:18.455Z,12.88
2022-09-11T03:38:21.690Z,12.90
2022-09-11T03:39:24.821Z,12.91
2022-09-11T03:40:28.754Z,12.93
2022-09-11T03:41:33.405Z,12.94
2022-09-11T03:42:36.450Z,12.96
2022-09-11T03:43:39.714Z,12.98
2022-09-11T03:44:45.029Z,13.00
2022-09-11T03:45:51.855Z,13.02
2022-09-11T03:46:55.850Z,13.04
2022-09-11T03:47:58.905Z,13.07
2022-09-11T03:49:02.241Z,13.09
2022-09-11T03:50:09.751Z,13.10
2022-09-11T03:51:16.155Z,13.12
2022-09-11T03:52:19.317Z,13.14
2022-09-11T03:53:22.280Z,13.17
2022-09-11T03:54:25.219Z,13.18
2022-09-11T03:55:28.218Z,13.21
2022-09-11T03:56:31.246Z,13.23
2022-09-11T03:57:35.590Z,13.25
2022-09-11T03:58:38.765Z,13.27
2022-09-11T03:59:41.865Z,13.30
2022-09-11T04:00:45.130Z,13.31
2022-09-11T04:01:50.190Z,13.33
2022-09-11T04:02:54.983Z,13.35
2022-09-11T04:04:15.471Z,13.36
2022-09-11T04:05:19.216Z,13.38
2022-09-11T04:06:24.032Z,13.38
2022-09-11T04:07:28.991Z,13.38
2022-09-11T04:08:33.295Z,13.40
2022-09-11T04:09:37.141Z,13.40
2022-09-11T04:10:40.187Z,13.41
2022-09-11T04:11:44.155Z,13.42
2022-09-11T04:12:48.896Z,13.42
2022-09-11T04:13:52.218Z,13.42
2022-09-11T04:14:56.535Z,13.44
2022-09-11T04:16:02.511Z,13.43
2022-09-11T04:17:07.523Z,13.43
2022-09-11T04:18:11.889Z,13.45
2022-09-11T04:19:15.728Z,13.45
2022-09-11T04:20:19.493Z,13.46
2022-09-11T04:21:22.589Z,13.48
2022-09-11T04:22:27.417Z,13.49
2022-09-11T04:23:30.331Z,13.49
2022-09-11T04:24:33.331Z,13.51
2022-09-11T04:25:36.713Z,13.53
2022-09-11T04:26:39.892Z,13.53
2022-09-11T04:27:44.715Z,13.54
2022-09-11T04:28:50.172Z,13.57
2022-09-11T04:29:53.321Z,13.57
2022-09-11T04:31:03.065Z,13.60
2022-09-11T04:32:06.528Z,13.61
2022-09-11T04:33:10.782Z,13.63
2022-09-11T04:34:13.795Z,13.65
2022-09-11T04:35:16.753Z,13.67
2022-09-11T04:36:23.990Z,13.69
2022-09-11T04:37:28.334Z,13.71
2022-09-11T04:38:31.320Z,13.72
2022-09-11T04:39:35.218Z,13.74
2022-09-11T04:40:38.516Z,13.76
2022-09-11T04:41:43.639Z,13.76
2022-09-11T04:42:46.676Z,13.78
2022-09-11T04:43:55.699Z,13.79
2022-09-11T04:44:58.716Z,13.81
2022-09-11T04:46:12.411Z,13.82
2022-09-11T04:47:16.282Z,13.83
2022-09-11T04:48:19.330Z,13.85
2022-09-11T04:49:24.400Z,13.86
2022-09-11T04:50:28.654Z,13.86
2022-09-11T04:51:35.977Z,13.87
2022-09-11T04:52:38.934Z,13.90
2022-09-11T04:53:43.862Z,13.90
2022-09-11T04:54:47.886Z,13.93
2022-09-11T04:55:52.296Z,13.94
2022-09-11T04:56:55.835Z,13.96
2022-09-11T04:57:58.775Z,13.97
2022-09-11T04:59:05.329Z,13.98
2022-09-11T05:00:10.563Z,13.98
2022-09-11T05:01:15.405Z,13.99
2022-09-11T05:02:19.378Z,13.99
2022-09-11T05:03:24.457Z,13.99
2022-09-11T05:04:27.405Z,14.01
2022-09-11T05:05:30.952Z,14.03
2022-09-11T05:06:37.416Z,14.03
2022-09-11T05:07:43.374Z,14.05
2022-09-11T05:08:46.737Z,14.06
2022-09-11T05:09:54.348Z,14.08
2022-09-11T05:10:59.417Z,14.10
2022-09-11T05:12:02.600Z,14.12
2022-09-11T05:13:08.543Z,14.14
2022-09-11T05:14:12.178Z,14.17
2022-09-11T05:15:16.542Z,14.18
2022-09-11T05:16:21.370Z,14.19
2022-09-11T05:17:24.570Z,14.25
2022-09-11T05:18:28.992Z,14.26
2022-09-11T05:19:31.942Z,14.26
2022-09-11T05:20:35.090Z,14.28
2022-09-11T05:21:38.884Z,14.30
2022-09-11T05:22:41.838Z,14.32
2022-09-11T05:23:47.541Z,14.35
2022-09-11T05:24:51.013Z,14.37
2022-09-11T05:26:02.143Z,14.39
2022-09-11T05:27:06.350Z,14.42
2022-09-11T05:28:09.340Z,14.45
2022-09-11T05:29:14.677Z,14.49
2022-09-11T05:30:19.708Z,14.52
2022-09-11T05:31:24.773Z,14.56
2022-09-11T05:32:27.767Z,14.58
2022-09-11T05:33:31.133Z,14.61
2022-09-11T05:34:35.078Z,14.65
2022-09-11T05:35:38.439Z,14.69
2022-09-11T05:36:41.584Z,14.71
2022-09-11T05:37:45.946Z,14.73
2022-09-11T05:38:49.121Z,14.79
2022-09-11T05:39:52.181Z,14.79
2022-09-11T05:40:55.371Z,14.82
2022-09-11T05:41:58.701Z,14.85
2022-09-11T05:43:03.555Z,14.89
2022-09-11T05:44:06.624Z,14.91
2022-09-11T05:45:09.947Z,14.94
2022-09-11T05:46:15.832Z,14.99
2022-09-11T05:47:18.770Z,15.01
2022-09-11T05:48:23.742Z,15.07
2022-09-11T05:49:26.684Z,15.12
2022-09-11T05:50:31.785Z,15.14
2022-09-11T05:51:37.128Z,15.17
2022-09-11T05:52:40.761Z,15.19
2022-09-11T05:53:45.501Z,15.19
2022-09-11T05:54:49.443Z,15.22
2022-09-11T05:55:52.881Z,15.23
2022-09-11T05:56:55.906Z,15.24
2022-09-11T05:58:01.636Z,15.27
2022-09-11T05:59:08.141Z,15.29
2022-09-11T06:00:14.538Z,15.31
2022-09-11T06:01:21.237Z,15.30
2022-09-11T06:02:24.874Z,15.30
2022-09-11T06:03:32.035Z,15.30
2022-09-11T06:04:35.291Z,15.31
2022-09-11T06:05:38.329Z,15.33
2022-09-11T06:06:41.467Z,15.34
2022-09-11T06:07:44.586Z,15.34
2022-09-11T06:08:49.410Z,15.34
2022-09-11T06:09:52.492Z,15.34
2022-09-11T06:10:57.732Z,15.34
2022-09-11T06:12:01.177Z,15.35
2022-09-11T06:13:04.517Z,15.34
2022-09-11T06:14:08.369Z,15.34
2022-09-11T06:15:30.080Z,15.36
2022-09-11T06:16:19.918Z,15.36
2022-09-11T06:17:23.661Z,15.39
2022-09-11T06:18:29.260Z,15.41
2022-09-11T06:19:32.924Z,15.42
2022-09-11T06:20:36.276Z,15.45
2022-09-11T06:21:40.331Z,15.48
2022-09-11T06:22:47.835Z,15.52
2022-09-11T06:23:52.511Z,15.56
2022-09-11T06:24:55.722Z,15.60
2022-09-11T06:26:08.460Z,15.63
2022-09-11T06:27:12.343Z,15.67
2022-09-11T06:28:17.204Z,15.72
2022-09-11T06:29:20.215Z,15.74
2022-09-11T06:30:25.107Z,15.79
2022-09-11T06:31:29.468Z,15.82
2022-09-11T06:32:32.522Z,15.86
2022-09-11T06:33:37.573Z,15.89
2022-09-11T06:34:40.768Z,15.92
2022-09-11T06:36:00.365Z,15.95
2022-09-11T06:37:04.206Z,15.99
2022-09-11T06:38:08.102Z,16.05
2022-09-11T06:39:11.376Z,16.08
2022-09-11T06:40:15.130Z,16.12
2022-09-11T06:41:18.499Z,16.17
2022-09-11T06:42:23.056Z,16.22
2022-09-11T06:43:27.642Z,16.27
2022-09-11T06:44:30.888Z,16.32
2022-09-11T06:45:35.726Z,16.37
2022-09-11T06:46:39.801Z,16.40
2022-09-11T06:47:44.266Z,16.44
2022-09-11T06:48:49.125Z,16.46
2022-09-11T06:49:53.335Z,16.50
2022-09-11T06:51:05.635Z,16.53
2022-09-11T06:52:09.006Z,16.56
2022-09-11T06:53:13.869Z,16.59
2022-09-11T06:54:18.738Z,16.61
2022-09-11T06:55:22.175Z,16.64
2022-09-11T06:56:28.638Z,16.66
2022-09-11T06:57:32.166Z,16.67
2022-09-11T06:58:35.400Z,16.69
2022-09-11T06:59:38.761Z,16.71
2022-09-11T07:00:41.921Z,16.73
2022-09-11T07:01:46.526Z,16.74
2022-09-11T07:02:52.447Z,16.76
2022-09-11T07:03:55.697Z,16.77
2022-09-11T07:04:59.832Z,16.79
2022-09-11T07:06:03.398Z,16.81
2022-09-11T07:07:06.439Z,16.84
2022-09-11T07:08:10.080Z,16.87
2022-09-11T07:09:13.258Z,16.88
2022-09-11T07:10:19.012Z,16.90
2022-09-11T07:11:23.861Z,16.93
2022-09-11T07:12:27.704Z,16.95
2022-09-11T07:13:36.725Z,16.96
2022-09-11T07:14:37.992Z,16.97
2022-09-11T07:15:42.950Z,16.99
2022-09-11T07:16:48.591Z,17.01
2022-09-11T07:17:51.834Z,17.03
2022-09-11T07:18:55.161Z,17.05
2022-09-11T07:19:58.340Z,17.08
2022-09-11T07:21:11.077Z,17.09
2022-09-11T07:22:15.025Z,17.13
2022-09-11T07:23:18.771Z,17.14
2022-09-11T07:24:21.710Z,17.15
2022-09-11T07:25:25.511Z,17.16
2022-09-11T07:26:31.008Z,17.17
2022-09-11T07:27:35.876Z,17.21
2022-09-11T07:28:39.612Z,17.23
2022-09-11T07:29:43.552Z,17.26
2022-09-11T07:30:46.638Z,17.28
2022-09-11T07:31:49.771Z,17.31
2022-09-11T07:32:52.723Z,17.35
2022-09-11T07:33:56.441Z,17.38
2022-09-11T07:35:01.924Z,17.43
2022-09-11T07:36:12.732Z,17.46
2022-09-11T07:37:17.656Z,17.49
2022-09-11T07:38:21.092Z,17.54
2022-09-11T07:39:24.376Z,17.57
2022-09-11T07:40:30.694Z,17.59
2022-09-11T07:41:35.363Z,17.61
2022-09-11T07:42:40.545Z,17.64
2022-09-11T07:43:48.882Z,17.66
2022-09-11T07:44:51.967Z,17.66
2022-09-11T07:45:56.074Z,17.68
2022-09-11T07:47:00.407Z,17.69
2022-09-11T07:48:03.495Z,17.69
2022-09-11T07:49:07.242Z,17.71
2022-09-11T07:50:10.703Z,17.71
2022-09-11T07:51:16.320Z,17.70
2022-09-11T07:52:20.278Z,17.70
2022-09-11T07:53:25.559Z,17.70
2022-09-11T07:54:29.677Z,17.69
2022-09-11T07:55:34.429Z,17.68
2022-09-11T07:56:38.016Z,17.68
2022-09-11T07:57:44.478Z,17.68
2022-09-11T07:58:48.229Z,17.67
2022-09-11T07:59:51.690Z,17.67
2022-09-11T08:00:58.533Z,17.67
2022-09-11T08:02:02.033Z,17.68
2022-09-11T08:03:05.283Z,17.68
2022-09-11T08:04:13.763Z,17.70
2022-09-11T08:05:18.067Z,17.71
2022-09-11T08:06:22.692Z,17.73
2022-09-11T08:07:27.115Z,17.75
2022-09-11T08:08:30.376Z,17.79
2022-09-11T08:09:33.939Z,17.81
2022-09-11T08:10:40.319Z,17.85
2022-09-11T08:11:46.520Z,17.88
2022-09-11T08:12:49.699Z,17.91
2022-09-11T08:13:54.482Z,17.95
2022-09-11T08:14:58.333Z,17.99
2022-09-11T08:16:01.699Z,18.03
2022-09-11T08:17:05.469Z,18.07
2022-09-11T08:18:08.599Z,18.11
2022-09-11T08:19:15.241Z,18.14
2022-09-11T08:20:19.809Z,18.18
2022-09-11T08:21:23.690Z,18.20
2022-09-11T08:22:26.766Z,18.23
2022-09-11T08:23:33.271Z,18.25
2022-09-11T08:24:36.573Z,18.29
2022-09-11T08:25:40.839Z,18.31
2022-09-11T08:26:48.635Z,18.33
2022-09-11T08:27:49.201Z,18.36
2022-09-11T08:28:55.170Z,18.37
2022-09-11T08:29:58.947Z,18.37
2022-09-11T08:31:03.458Z,18.38
2022-09-11T08:32:06.599Z,18.40
2022-09-11T08:33:12.043Z,18.41
2022-09-11T08:34:15.123Z,18.43
2022-09-11T08:35:18.557Z,18.44
2022-09-11T08:36:22.933Z,18.45
2022-09-11T08:37:26.679Z,18.45
2022-09-11T08:38:30.613Z,18.46
2022-09-11T08:39:33.587Z,18.46
2022-09-11T08:40:38.436Z,18.47
2022-09-11T08:41:51.531Z,18.48
2022-09-11T08:42:57.116Z,18.49
2022-09-11T08:44:13.701Z,18.50
2022-09-11T08:45:20.070Z,18.48
2022-09-11T08:46:27.195Z,18.48
2022-09-11T08:47:33.798Z,18.46
2022-09-11T08:48:46.299Z,18.46
2022-09-11T08:50:04.984Z,18.47
2022-09-11T08:51:11.369Z,18.48
2022-09-11T08:52:16.244Z,18.50
2022-09-11T08:53:20.188Z,18.50
2022-09-11T08:54:38.555Z,18.52
2022-09-11T08:55:46.403Z,18.53
2022-09-11T08:56:51.083Z,18.56
2022-09-11T08:58:13.859Z,18.59
2022-09-11T08:59:29.180Z,18.62
2022-09-11T09:00:44.952Z,18.66
2022-09-11T09:02:14.015Z,18.70
2022-09-11T09:03:21.419Z,18.71
2022-09-11T09:04:46.687Z,18.72
2022-09-11T09:05:59.155Z,18.71
2022-09-11T09:07:23.353Z,18.71
2022-09-11T09:08:44.290Z,18.72
2022-09-11T09:09:55.367Z,18.73
2022-09-11T09:11:02.089Z,18.74
2022-09-11T09:12:15.525Z,18.77
2022-09-11T09:13:27.770Z,18.76
2022-09-11T09:14:53.622Z,18.77
2022-09-11T09:16:22.085Z,18.77
2022-09-11T09:17:28.517Z,18.77
2022-09-11T09:18:35.139Z,18.77
2022-09-11T09:19:50.822Z,18.75
2022-09-11T09:21:03.550Z,18.77
2022-09-11T09:22:18.061Z,18.78
2022-09-11T09:23:24.999Z,18.78
2022-09-11T09:24:31.660Z,18.78
2022-09-11T09:25:37.815Z,18.79
2022-09-11T09:26:41.212Z,18.76
2022-09-11T09:27:47.743Z,18.75
2022-09-11T09:28:54.248Z,18.75
2022-09-11T09:30:00.601Z,18.75
2022-09-11T09:31:07.579Z,18.73
2022-09-11T09:32:20.584Z,18.72
2022-09-11T09:33:30.688Z,18.72
2022-09-11T09:34:37.434Z,18.70
2022-09-11T09:35:44.632Z,18.67
2022-09-11T09:37:07.906Z,18.67
2022-09-11T09:38:18.862Z,18.67
2022-09-11T09:39:23.766Z,18.65
2022-09-11T09:40:28.862Z,18.64
2022-09-11T09:41:44.452Z,18.63
2022-09-11T09:43:05.900Z,18.64
2022-09-11T09:44:27.823Z,18.61
2022-09-11T09:45:52.746Z,18.62
2022-09-11T09:46:56.055Z,18.60
2022-09-11T09:48:00.499Z,18.60
2022-09-11T09:49:04.178Z,18.58
2022-09-11T09:50:14.286Z,18.59
2022-09-11T09:51:17.329Z,18.59
2022-09-11T09:52:25.333Z,18.58
2022-09-11T09:53:41.072Z,18.59
2022-09-11T09:54:49.023Z,18.62
2022-09-11T09:55:53.799Z,18.62
2022-09-11T09:57:01.842Z,18.63
2022-09-11T09:58:06.840Z,18.64
2022-09-11T09:59:22.068Z,18.65
2022-09-11T10:00:26.456Z,18.64
2022-09-11T10:01:45.395Z,18.64
2022-09-11T10:02:52.791Z,18.66
2022-09-11T10:04:11.026Z,18.66
2022-09-11T10:05:23.600Z,18.66
2022-09-11T10:06:28.003Z,18.66
2022-09-11T10:07:31.869Z,18.65
2022-09-11T10:08:37.196Z,18.66
2022-09-11T10:09:50.722Z,18.66
2022-09-11T10:10:57.751Z,18.66
2022-09-11T10:12:05.817Z,18.67
2022-09-11T10:13:19.788Z,18.66
2022-09-11T10:14:49.444Z,18.66
2022-09-11T10:15:29.024Z,18.66
2022-09-11T10:16:32.474Z,18.65
2022-09-11T10:17:37.782Z,18.65
2022-09-11T10:18:42.372Z,18.65
2022-09-11T10:19:46.046Z,18.65
2022-09-11T10:20:49.279Z,18.70
2022-09-11T10:21:52.467Z,18.73
2022-09-11T10:22:55.623Z,18.75
2022-09-11T10:24:01.761Z,18.79
2022-09-11T10:25:14.563Z,18.82
2022-09-11T10:26:25.047Z,18.86
2022-09-11T10:27:31.098Z,18.89
2022-09-11T10:28:34.007Z,18.91
2022-09-11T10:29:36.987Z,18.94
2022-09-11T10:30:43.146Z,18.96
2022-09-11T10:31:54.919Z,19.00
2022-09-11T10:33:03.097Z,19.02
2022-09-11T10:34:04.522Z,19.06
2022-09-11T10:35:10.767Z,19.08
2022-09-11T10:36:17.509Z,19.12
2022-09-11T10:37:27.565Z,19.16
2022-09-11T10:38:46.865Z,19.19
2022-09-11T10:39:50.829Z,19.23
2022-09-11T10:41:07.859Z,19.27
2022-09-11T10:42:21.844Z,19.30
2022-09-11T10:43:28.402Z,19.34
2022-09-11T10:44:33.414Z,19.35
2022-09-11T10:45:36.312Z,19.39
2022-09-11T10:46:41.724Z,19.41
2022-09-11T10:47:46.894Z,19.43
2022-09-11T10:48:58.766Z,19.46
2022-09-11T10:50:23.795Z,19.48
2022-09-11T10:51:30.181Z,19.50
2022-09-11T10:52:33.150Z,19.52
2022-09-11T10:53:40.612Z,19.53
2022-09-11T10:55:05.620Z,19.56
2022-09-11T10:56:09.391Z,19.57
2022-09-11T10:57:33.855Z,19.58
2022-09-11T10:58:40.339Z,19.59
2022-09-11T10:59:47.105Z,19.60
2022-09-11T11:00:51.643Z,19.61
2022-09-11T11:01:55.129Z,19.61
2022-09-11T11:03:03.654Z,19.62
2022-09-11T11:04:12.434Z,19.63
2022-09-11T11:05:34.110Z,19.63
2022-09-11T11:06:43.442Z,19.64
2022-09-11T11:08:17.004Z,19.65
2022-09-11T11:11:15.464Z,19.74
2022-09-11T11:12:26.614Z,19.62
2022-09-11T11:14:06.691Z,19.60
2022-09-11T11:15:30.216Z,19.59
2022-09-11T11:16:53.177Z,19.58
2022-09-11T11:18:20.601Z,19.61
2022-09-11T11:19:40.383Z,19.61
2022-09-11T11:20:47.093Z,19.61
2022-09-11T11:22:09.247Z,19.60
2022-09-11T11:23:35.464Z,19.60
2022-09-11T11:25:10.741Z,19.60
2022-09-11T11:26:42.649Z,19.62
2022-09-11T11:28:25.289Z,19.63
2022-09-11T11:29:34.498Z,19.64
2022-09-11T11:30:54.494Z,19.68
2022-09-11T11:32:17.617Z,19.68
2022-09-11T11:33:28.260Z,19.70
2022-09-11T11:34:40.601Z,19.71
2022-09-11T11:35:53.275Z,19.72
2022-09-11T11:37:17.922Z,19.73
2022-09-11T11:38:40.016Z,19.73
2022-09-11T11:40:04.571Z,19.73
2022-09-11T11:41:26.274Z,19.72
2022-09-11T11:42:46.038Z,19.71
2022-09-11T11:43:52.320Z,19.68
2022-09-11T11:44:59.805Z,19.66
2022-09-11T11:46:41.635Z,19.63
2022-09-11T11:47:47.344Z,19.61
2022-09-11T11:48:58.166Z,19.58
2022-09-11T11:50:10.442Z,19.57
2022-09-11T11:51:26.700Z,19.56
2022-09-11T11:52:36.192Z,19.55
2022-09-11T11:53:51.878Z,19.55
2022-09-11T11:55:04.545Z,19.55
2022-09-11T11:56:28.371Z,19.55
2022-09-11T11:57:35.025Z,19.55
2022-09-11T11:58:53.482Z,19.54
2022-09-11T12:00:02.906Z,19.55
2022-09-11T12:01:20.221Z,19.54
2022-09-11T12:02:29.843Z,19.54
2022-09-11T12:03:36.503Z,19.54
2022-09-11T12:04:43.291Z,19.54
2022-09-11T12:05:46.242Z,19.55
2022-09-11T12:06:50.103Z,19.53
2022-09-11T12:07:53.828Z,19.53
2022-09-11T12:08:57.260Z,19.53
2022-09-11T12:10:02.572Z,19.50
2022-09-11T12:11:07.170Z,19.49
2022-09-11T12:12:11.211Z,19.45
2022-09-11T12:13:20.036Z,19.43
2022-09-11T12:14:29.005Z,19.41
2022-09-11T12:15:34.113Z,19.38
2022-09-11T12:16:38.456Z,19.35
2022-09-11T12:17:42.769Z,19.32
2022-09-11T12:20:17.384Z,19.36
2022-09-11T12:21:28.812Z,19.23
2022-09-11T12:22:38.543Z,19.19
2022-09-11T12:23:54.312Z,19.17
2022-09-11T12:25:00.520Z,19.14
2022-09-11T12:26:10.015Z,19.12
2022-09-11T12:27:33.674Z,19.10
2022-09-11T12:28:37.353Z,19.09
2022-09-11T12:29:43.957Z,19.06
2022-09-11T12:31:05.608Z,19.04
2022-09-11T12:32:20.578Z,19.03
2022-09-11T12:33:48.089Z,19.02
2022-09-11T12:34:57.601Z,18.99
2022-09-11T12:36:01.221Z,18.95
2022-09-11T12:37:08.829Z,18.95
2022-09-11T12:38:30.641Z,18.94
2022-09-11T12:39:40.813Z,18.92
2022-09-11T12:41:04.600Z,18.90
2022-09-11T12:42:26.176Z,18.90
2022-09-11T12:43:40.774Z,18.89
2022-09-11T12:44:50.175Z,18.88
2022-09-11T12:45:53.409Z,18.89
2022-09-11T12:47:00.230Z,18.89
2022-09-11T12:48:09.308Z,18.90
2022-09-11T12:49:22.471Z,18.91
2022-09-11T12:50:24.587Z,18.91
2022-09-11T12:51:31.201Z,18.92
2022-09-11T12:52:38.760Z,18.93
2022-09-11T12:53:47.091Z,18.94
2022-09-11T12:54:50.795Z,18.93
2022-09-11T12:56:00.225Z,18.94
2022-09-11T12:57:10.368Z,18.94
2022-09-11T12:58:28.852Z,18.94
2022-09-11T12:59:38.326Z,18.94
2022-09-11T13:00:43.875Z,18.94
2022-09-11T13:01:47.195Z,18.93
2022-09-11T13:02:56.443Z,18.93
2022-09-11T13:04:18.925Z,18.92
2022-09-11T13:05:25.591Z,18.90
2022-09-11T13:06:51.405Z,18.89
2022-09-11T13:07:59.121Z,18.88
2022-09-11T13:09:03.486Z,18.87
2022-09-11T13:10:10.545Z,18.85
2022-09-11T13:11:40.093Z,18.84
2022-09-11T13:12:51.283Z,18.83
2022-09-11T13:13:54.559Z,18.82
2022-09-11T13:15:00.680Z,18.80
2022-09-11T13:16:25.271Z,18.79
2022-09-11T13:17:36.985Z,18.78
2022-09-11T13:18:42.397Z,18.74
2022-09-11T13:19:45.527Z,18.73
2022-09-11T13:21:10.346Z,18.73
2022-09-11T13:22:25.525Z,18.72
2022-09-11T13:23:29.158Z,18.71
2022-09-11T13:24:34.027Z,18.69
2022-09-11T13:25:40.054Z,18.66
2022-09-11T13:26:43.220Z,18.65
2022-09-11T13:27:52.294Z,18.64
2022-09-11T13:28:58.290Z,18.64
2022-09-11T13:30:02.172Z,18.63
2022-09-11T13:31:06.356Z,18.63
2022-09-11T13:33:30.542Z,18.74
2022-09-11T13:34:35.678Z,18.63
2022-09-11T13:35:41.839Z,18.62
2022-09-11T13:36:46.758Z,18.63
2022-09-11T13:38:01.259Z,18.63
2022-09-11T13:39:05.148Z,18.63
2022-09-11T13:40:21.924Z,18.63
2022-09-11T13:41:29.369Z,18.62
2022-09-11T13:42:35.331Z,18.63
2022-09-11T13:43:45.271Z,18.62
2022-09-11T13:44:51.638Z,18.61
2022-09-11T13:46:12.198Z,18.61
2022-09-11T13:47:21.628Z,18.61
2022-09-11T13:48:25.987Z,18.61
2022-09-11T13:49:32.909Z,18.60
2022-09-11T13:50:36.522Z,18.61
2022-09-11T13:51:42.876Z,18.61
2022-09-11T13:52:46.604Z,18.61
2022-09-11T13:54:05.879Z,18.62
2022-09-11T13:55:18.635Z,18.63
2022-09-11T13:57:58.790Z,18.76
2022-09-11T13:59:21.597Z,18.65
2022-09-11T14:00:46.892Z,18.66
2022-09-11T14:01:55.288Z,18.67
2022-09-11T14:02:59.522Z,18.69
2022-09-11T14:04:04.346Z,18.70
2022-09-11T14:05:14.206Z,18.70
2022-09-11T14:06:20.086Z,18.72
2022-09-11T14:07:26.141Z,18.70
2022-09-11T14:08:41.569Z,18.71
2022-09-11T14:09:50.030Z,18.72
2022-09-11T14:11:00.245Z,18.72
2022-09-11T14:12:03.365Z,18.72
2022-09-11T14:13:34.067Z,18.72
2022-09-11T14:14:37.207Z,18.72
2022-09-11T14:15:43.465Z,18.71
2022-09-11T14:16:50.618Z,18.71
2022-09-11T14:17:53.963Z,18.71
2022-09-11T14:19:03.482Z,18.70
2022-09-11T14:20:10.489Z,18.70
2022-09-11T14:21:19.755Z,18.70
2022-09-11T14:22:30.555Z,18.69
2022-09-11T14:23:37.480Z,18.69
2022-09-11T14:24:44.026Z,18.69
2022-09-11T14:26:07.370Z,18.68
2022-09-11T14:27:33.467Z,18.69
2022-09-11T14:28:42.840Z,18.67
2022-09-11T14:29:49.536Z,18.65
2022-09-11T14:31:07.889Z,18.65
2022-09-11T14:32:30.633Z,18.64
2022-09-11T14:33:33.675Z,18.62
2022-09-11T14:34:36.741Z,18.60
2022-09-11T14:35:40.083Z,18.60
2022-09-11T14:36:46.656Z,18.59
2022-09-11T14:37:50.556Z,18.58
2022-09-11T14:38:53.888Z,18.58
2022-09-11T14:39:59.565Z,18.57
2022-09-11T14:41:06.752Z,18.58
2022-09-11T14:42:16.341Z,18.56
2022-09-11T14:43:23.725Z,18.56